createdAt,value
2023-03-13T00:02:26.528Z,11.30
2023-03-13T00:06:03.963Z,8.70
2023-03-13T00:09:41.811Z,12.50
2023-03-13T00:13:19.392Z,11.60
2023-03-13T00:16:57.340Z,13.90
2023-03-13T00:21:04.433Z,8.10
2023-03-13T00:24:33.343Z,11.60
2023-03-13T00:27:50.057Z,9.10
2023-03-13T00:31:31.725Z,8.90
2023-03-13T00:35:05.690Z,12.20
2023-03-13T00:38:44.065Z,7.80
2023-03-13T00:42:22.419Z,11.80
2023-03-13T00:45:58.997Z,8.90
2023-03-13T00:49:36.079Z,9.70
2023-03-13T00:53:33.143Z,5.80
2023-03-13T00:56:51.465Z,6.60
2023-03-13T01:00:29.149Z,7.00
2023-03-13T01:04:25.713Z,9.00
2023-03-13T01:08:03.683Z,7.10
2023-03-13T01:11:26.166Z,9.10
2023-03-13T01:14:59.975Z,9.60
2023-03-13T01:19:00.326Z,6.90
2023-03-13T01:22:34.301Z,7.40
2023-03-13T01:25:55.495Z,6.60
2023-03-13T01:29:30.707Z,6.40
2023-03-13T01:33:27.208Z,7.30
2023-03-13T01:37:06.212Z,11.50
2023-03-13T01:40:24.073Z,9.50
2023-03-13T01:44:01.808Z,6.20
2023-03-13T01:47:58.061Z,6.50
2023-03-13T01:51:47.184Z,6.50
2023-03-13T01:55:00.911Z,6.80
2023-03-13T01:58:32.329Z,6.90
2023-03-13T02:02:29.522Z,7.60
2023-03-13T02:06:07.884Z,7.30
2023-03-13T02:09:29.460Z,10.70
2023-03-13T02:13:03.724Z,7.60
2023-03-13T02:17:01.074Z,6.40
2023-03-13T02:20:23.249Z,7.20
2023-03-13T02:24:09.606Z,10.90
2023-03-13T02:27:33.801Z,7.00
2023-03-13T02:31:31.106Z,9.70
2023-03-13T02:34:52.783Z,8.70
2023-03-13T02:38:59.208Z,9.50
2023-03-13T02:42:05.824Z,6.60
2023-03-13T02:45:42.020Z,7.70
2023-03-13T02:49:24.791Z,4.90
2023-03-13T02:53:02.997Z,5.70
2023-03-13T02:56:38.466Z,4.20
2023-03-13T03:00:32.050Z,5.90
2023-03-13T03:03:51.255Z,6.40
2023-03-13T03:07:28.093Z,9.90
2023-03-13T03:11:06.055Z,7.10
2023-03-13T03:14:43.391Z,7.30
2023-03-13T03:18:21.150Z,9.40
2023-03-13T03:22:18.211Z,4.80
2023-03-13T03:25:36.775Z,4.60
2023-03-13T03:29:14.395Z,4.30
2023-03-13T03:32:52.127Z,7.80
2023-03-13T03:36:29.513Z,5.80
2023-03-13T03:40:07.776Z,12.20
2023-03-13T03:43:45.729Z,7.40
2023-03-13T03:47:41.694Z,8.90
2023-03-13T03:51:00.635Z,12.20
2023-03-13T03:54:38.300Z,9.30
2023-03-13T03:58:15.854Z,7.10
2023-03-13T04:01:53.797Z,7.40
2023-03-13T04:05:31.160Z,9.70
2023-03-13T04:09:29.925Z,10.50
2023-03-13T04:12:46.745Z,6.50
2023-03-13T04:16:43.352Z,4.90
2023-03-13T04:20:02.087Z,7.00
2023-03-13T04:23:59.276Z,12.60
2023-03-13T04:27:36.388Z,7.40
2023-03-13T04:31:14.194Z,6.80
2023-03-13T04:34:32.989Z,4.30
2023-03-13T04:38:10.550Z,5.50
2023-03-13T04:41:48.176Z,5.50
2023-03-13T04:45:26.044Z,5.30
2023-03-13T04:49:22.381Z,4.70
2023-03-13T04:52:43.638Z,4.50
2023-03-13T04:56:41.120Z,5.80
2023-03-13T05:00:07.972Z,23.10
2023-03-13T05:03:41.728Z,9.50
2023-03-13T05:07:38.228Z,9.90
2023-03-13T05:10:56.697Z,12.30
2023-03-13T05:14:34.520Z,10.30
2023-03-13T05:18:31.034Z,10.50
2023-03-13T05:22:05.875Z,15.70
2023-03-13T05:25:43.817Z,12.70
2023-03-13T05:29:21.551Z,12.70
2023-03-13T05:32:58.629Z,9.10
2023-03-13T05:36:36.523Z,10.90
2023-03-13T05:40:14.858Z,7.60
2023-03-13T05:43:53.128Z,11.90
2023-03-13T05:47:31.693Z,20.70
2023-03-13T05:51:28.510Z,9.60
2023-03-13T05:54:47.070Z,31.10
2023-03-13T05:58:43.935Z,20.10
2023-03-13T06:02:05.451Z,14.10
2023-03-13T06:05:43.179Z,10.50
2023-03-13T06:09:20.781Z,8.60
2023-03-13T06:13:03.131Z,8.80
2023-03-13T06:16:55.402Z,24.40
2023-03-13T06:20:14.446Z,27.60
2023-03-13T06:23:51.428Z,18.80
2023-03-13T06:27:29.216Z,19.10
2023-03-13T06:31:25.865Z,16.80
2023-03-13T06:35:04.740Z,21.40
2023-03-13T06:38:41.238Z,27.00
2023-03-13T06:42:18.873Z,18.00
2023-03-13T06:45:37.913Z,28.90
2023-03-13T06:49:15.576Z,16.00
2023-03-13T06:53:19.632Z,17.90
2023-03-13T06:56:50.121Z,16.30
2023-03-13T07:00:11.472Z,11.30
2023-03-13T07:03:47.951Z,9.70
2023-03-13T07:07:31.890Z,11.00
2023-03-13T07:11:05.137Z,11.30
2023-03-13T07:14:39.143Z,8.60
2023-03-13T07:18:36.537Z,9.10
2023-03-13T07:21:54.258Z,7.90
2023-03-13T07:25:32.272Z,8.40
2023-03-13T07:29:10.364Z,11.90
2023-03-13T07:32:47.655Z,10.20
2023-03-13T07:36:25.800Z,11.40
2023-03-13T07:40:04.566Z,8.90
2023-03-13T07:43:41.074Z,11.10
2023-03-13T07:47:37.205Z,12.70
2023-03-13T07:51:30.238Z,13.40
2023-03-13T07:54:39.687Z,12.60
2023-03-13T07:58:17.291Z,20.40
2023-03-13T08:01:55.102Z,27.00
2023-03-13T08:05:32.573Z,29.40
2023-03-13T08:09:11.215Z,32.50
2023-03-13T08:13:06.973Z,16.40
2023-03-13T08:16:28.650Z,10.40
2023-03-13T08:20:04.065Z,18.00
2023-03-13T08:23:41.649Z,17.90
2023-03-13T08:27:37.456Z,13.60
2023-03-13T08:30:56.412Z,13.30
2023-03-13T08:34:35.244Z,17.10
2023-03-13T08:38:30.842Z,20.30
2023-03-13T08:41:49.464Z,22.10
2023-03-13T08:45:27.131Z,26.50
2023-03-13T08:49:06.751Z,19.50
2023-03-13T08:53:02.182Z,16.30
2023-03-13T08:56:23.202Z,10.70
2023-03-13T09:00:18.126Z,14.80
2023-03-13T09:03:54.939Z,10.00
2023-03-13T09:07:32.146Z,19.00
2023-03-13T09:11:12.622Z,11.10
2023-03-13T09:14:47.574Z,13.80
2023-03-13T09:18:27.293Z,8.60
2023-03-13T09:21:44.257Z,8.00
2023-03-13T09:25:21.648Z,20.60
2023-03-13T09:28:59.657Z,13.40
2023-03-13T09:32:37.186Z,11.10
2023-03-13T09:36:33.648Z,13.70
2023-03-13T09:39:52.193Z,11.70
2023-03-13T09:43:45.242Z,9.90
2023-03-13T09:47:34.259Z,9.20
2023-03-13T09:51:16.354Z,8.30
2023-03-13T09:54:38.628Z,8.70
2023-03-13T09:58:27.082Z,11.70
2023-03-13T10:01:40.487Z,8.50
2023-03-13T10:05:24.779Z,6.70
2023-03-13T10:08:53.647Z,6.90
2023-03-13T10:12:41.575Z,7.50
2023-03-13T10:16:35.065Z,6.20
2023-03-13T10:19:54.749Z,7.00
2023-03-13T10:23:44.513Z,4.30
2023-03-13T10:27:02.329Z,3.20
2023-03-13T10:30:46.634Z,9.10
2023-03-13T10:34:17.740Z,8.50
2023-03-13T10:38:06.003Z,8.00
2023-03-13T10:41:38.459Z,12.20
2023-03-13T10:45:37.442Z,12.40
2023-03-13T10:48:48.421Z,8.50
2023-03-13T10:52:29.125Z,5.40
2023-03-13T10:56:28.532Z,7.50
2023-03-13T11:00:22.349Z,10.70
2023-03-13T11:03:33.334Z,11.40
2023-03-13T11:07:28.160Z,8.40
2023-03-13T11:11:01.694Z,13.90
2023-03-13T11:14:20.954Z,18.10
2023-03-13T11:18:14.987Z,13.30
2023-03-13T11:21:58.025Z,20.30
2023-03-13T11:25:25.287Z,19.10
2023-03-13T11:29:07.640Z,16.80
2023-03-13T11:32:42.286Z,11.90
2023-03-13T11:36:39.089Z,10.10
2023-03-13T11:39:54.688Z,14.20
2023-03-13T11:44:32.573Z,10.50
2023-03-13T11:48:33.892Z,5.90
2023-03-13T11:52:01.350Z,8.80
2023-03-13T11:55:25.479Z,5.50
2023-03-13T11:59:33.849Z,10.00
2023-03-13T12:02:49.812Z,6.10
2023-03-13T12:06:27.866Z,6.10
2023-03-13T12:10:15.904Z,9.80
2023-03-13T12:13:38.755Z,11.20
2023-03-13T12:17:36.401Z,8.50
2023-03-13T12:21:05.525Z,5.80
2023-03-13T12:24:51.512Z,8.90
2023-03-13T12:28:16.776Z,6.90
2023-03-13T12:31:43.758Z,8.90
2023-03-13T12:35:33.222Z,7.00
2023-03-13T12:39:01.718Z,8.60
2023-03-13T12:42:54.881Z,7.80
2023-03-13T12:46:39.840Z,5.90
2023-03-13T12:50:24.258Z,6.40
2023-03-13T12:54:17.033Z,8.00
2023-03-13T12:57:57.952Z,8.40
2023-03-13T13:01:33.345Z,5.40
2023-03-13T13:04:45.495Z,12.80
2023-03-13T13:08:25.947Z,11.90
2023-03-13T13:11:56.747Z,16.40
2023-03-13T13:15:32.679Z,17.50
2023-03-13T13:19:40.485Z,11.70
2023-03-13T13:22:47.742Z,12.00
2023-03-13T13:26:30.779Z,11.60
2023-03-13T13:30:23.115Z,11.40
2023-03-13T13:33:41.145Z,9.30
2023-03-13T13:37:20.785Z,8.10
2023-03-13T13:41:10.863Z,14.30
2023-03-13T13:44:33.385Z,11.00
2023-03-13T13:48:24.338Z,11.60
2023-03-13T13:52:06.816Z,8.20
2023-03-13T13:55:45.307Z,5.50
2023-03-13T13:59:26.268Z,12.20
2023-03-13T14:03:00.672Z,14.50
2023-03-13T14:06:30.687Z,9.50
2023-03-13T14:10:36.573Z,9.50
2023-03-13T14:14:10.494Z,7.00
2023-03-13T14:17:16.762Z,7.30
2023-03-13T14:20:56.572Z,7.40
2023-03-13T14:24:58.061Z,9.30
2023-03-13T14:28:17.020Z,7.90
2023-03-13T14:31:58.986Z,9.10
2023-03-13T14:35:44.783Z,10.70
2023-03-13T14:39:48.276Z,7.00
2023-03-13T14:43:40.947Z,19.20
2023-03-13T14:46:45.660Z,30.40
2023-03-13T14:50:25.268Z,18.30
2023-03-13T14:54:03.157Z,11.20
2023-03-13T14:58:24.425Z,9.60
2023-03-13T15:01:31.206Z,11.90
2023-03-13T15:05:33.312Z,12.20
2023-03-13T15:09:08.778Z,10.40
2023-03-13T15:12:43.395Z,10.10
2023-03-13T15:16:21.061Z,13.60
2023-03-13T15:19:35.289Z,12.90
2023-03-13T15:23:15.351Z,10.00
2023-03-13T15:26:50.867Z,17.70
2023-03-13T15:30:50.647Z,21.40
2023-03-13T15:34:25.229Z,10.20
2023-03-13T15:37:43.910Z,15.20
2023-03-13T15:41:23.158Z,18.00
2023-03-13T15:44:59.297Z,12.90
2023-03-13T15:48:38.108Z,14.20
2023-03-13T15:52:35.189Z,16.50
2023-03-13T15:55:54.617Z,159.00
2023-03-13T15:59:30.038Z,32.50
2023-03-13T16:03:15.786Z,30.10
2023-03-13T16:06:45.419Z,41.10
2023-03-13T16:10:43.497Z,33.10
2023-03-13T16:14:00.924Z,16.80
2023-03-13T16:17:38.721Z,18.10
2023-03-13T16:21:23.120Z,20.80
2023-03-13T16:25:14.204Z,21.10
2023-03-13T16:28:51.204Z,16.50
2023-03-13T16:32:18.563Z,21.20
2023-03-13T16:35:47.203Z,18.10
2023-03-13T16:39:45.097Z,21.80
2023-03-13T16:43:02.581Z,19.30
2023-03-13T16:46:45.933Z,26.50
2023-03-13T16:50:18.429Z,26.60
2023-03-13T16:54:00.270Z,28.20
2023-03-13T16:57:33.354Z,19.30
2023-03-13T17:01:11.048Z,28.00
2023-03-13T17:04:49.753Z,22.70
2023-03-13T17:08:45.301Z,23.00
2023-03-13T17:12:22.805Z,23.30
2023-03-13T17:15:44.069Z,28.00
2023-03-13T17:19:22.828Z,27.30
2023-03-13T17:22:59.609Z,32.00
2023-03-13T17:26:37.671Z,23.50
2023-03-13T17:30:35.773Z,30.50
2023-03-13T17:34:09.253Z,30.40
2023-03-13T17:37:27.998Z,27.30
2023-03-13T17:41:26.762Z,20.90
2023-03-13T17:44:45.938Z,27.50
2023-03-13T17:48:23.688Z,30.70
2023-03-13T17:51:58.760Z,25.40
2023-03-13T17:55:55.041Z,26.90
2023-03-13T17:59:22.692Z,33.20
2023-03-13T18:02:52.770Z,78.30
2023-03-13T18:06:33.612Z,66.20
2023-03-13T18:10:15.732Z,29.30
2023-03-13T18:13:46.096Z,35.40
2023-03-13T18:17:31.411Z,37.80
2023-03-13T18:21:20.970Z,24.00
2023-03-13T18:24:56.561Z,19.30
2023-03-13T18:28:16.341Z,26.00
2023-03-13T18:32:00.390Z,24.20
2023-03-13T18:35:32.489Z,21.80
2023-03-13T18:39:27.302Z,31.50
2023-03-13T18:42:49.664Z,25.90
2023-03-13T18:50:29.960Z,20.00
2023-03-13T18:53:39.726Z,24.40
2023-03-13T18:57:19.906Z,23.70
2023-03-13T19:00:59.729Z,23.60
2023-03-13T19:04:32.234Z,26.70
2023-03-13T19:08:10.480Z,18.80
2023-03-13T19:12:06.771Z,22.90
2023-03-13T19:15:44.122Z,18.70
2023-03-13T19:19:03.165Z,24.20
2023-03-13T19:23:00.073Z,28.30
2023-03-13T19:26:41.899Z,53.50
2023-03-13T19:29:55.669Z,24.90
2023-03-13T19:33:54.064Z,33.00
2023-03-13T19:37:16.174Z,50.90
2023-03-13T19:40:49.127Z,33.60
2023-03-13T19:44:45.447Z,37.00
2023-03-13T19:48:23.642Z,34.40
2023-03-13T19:51:42.522Z,33.90
2023-03-13T19:55:19.973Z,23.80
2023-03-13T19:59:03.186Z,24.40
2023-03-13T20:02:35.398Z,18.60
2023-03-13T20:06:22.377Z,21.00
2023-03-13T20:09:50.464Z,16.50
2023-03-13T20:13:28.081Z,20.80
2023-03-13T20:17:06.090Z,29.20
2023-03-13T20:20:44.207Z,20.10
2023-03-13T21:05:41.874Z,31.00
2023-03-13T21:08:51.797Z,38.80
2023-03-13T21:12:29.105Z,52.00
2023-03-13T21:16:02.632Z,60.70
2023-03-13T21:19:39.318Z,21.00
2023-03-13T21:23:16.899Z,48.40
2023-03-13T21:26:55.222Z,45.80
2023-03-13T21:30:32.194Z,24.20
2023-03-13T21:34:28.743Z,39.20
2023-03-13T21:38:06.403Z,45.60
2023-03-13T21:41:26.733Z,46.00
2023-03-13T21:45:21.994Z,52.60
2023-03-13T21:48:42.777Z,47.30
2023-03-13T21:52:18.336Z,50.70
2023-03-13T21:55:56.142Z,41.30
2023-03-13T21:59:33.676Z,38.60
2023-03-13T22:03:12.123Z,34.30
2023-03-13T22:06:49.075Z,35.00
2023-03-13T22:10:26.885Z,34.60
2023-03-13T22:14:04.344Z,21.20
2023-03-13T22:18:01.209Z,13.30
2023-03-13T22:21:20.542Z,13.90
2023-03-13T22:24:57.575Z,9.10
2023-03-13T22:28:54.031Z,11.30
2023-03-13T22:32:13.049Z,12.20
2023-03-13T22:35:54.490Z,9.90
2023-03-13T22:39:28.275Z,9.80
2023-03-13T22:43:24.817Z,8.10
2023-03-13T22:47:02.696Z,10.20
2023-03-13T22:50:25.593Z,8.80
2023-03-13T22:53:59.077Z,9.10
2023-03-13T22:57:36.605Z,9.40
2023-03-13T23:01:33.500Z,8.80
2023-03-13T23:04:52.005Z,10.00
2023-03-13T23:08:29.859Z,9.00
2023-03-13T23:12:29.971Z,9.60
2023-03-13T23:16:09.008Z,10.50
2023-03-13T23:19:23.050Z,8.40
2023-03-13T23:23:00.628Z,7.30
2023-03-13T23:26:38.133Z,10.80
2023-03-13T23:30:34.678Z,9.80
2023-03-13T23:34:12.786Z,11.80
2023-03-13T23:37:53.946Z,8.90
2023-03-13T23:41:28.228Z,7.50
2023-03-13T23:44:46.578Z,7.60
2023-03-13T23:48:24.195Z,8.70
2023-03-13T23:52:21.582Z,6.10
2023-03-13T23:55:39.449Z,8.30
2023-03-13T23:59:36.350Z,5.00
